Terminal Aerodrome Forecast
Issued by NWS

Home | Current Version | Previous Version | Text Only | Print | Product List | Glossary On
Versions: 1 2 3 4 5 6 7 8 9 10 11 12 13 14 15 16 17
611
FTUS42 KMLB 190525
TAFISM
TAF
KISM 190525Z 1906/2006 VRB02KT P6SM SCT250
     FM191500 21004KT P6SM SCT030 SCT250
     FM192200 15007KT P6SM SCT050 SCT250=

USA.gov is the U.S. government's official web portal to all federal, state and local government web resources and services.